Rechercher aéroport 
image banner adimage banner adimage banner ad
image banner ad

CA90 - Cadiz Airstrip

Situé à Cadiz, United States

ICAO - CA90, IATA -

Données fournies par Airmate  

Information générale

Coordonnées: N34°30'50" W115°31'10"
Élévation : 780 feet MSL.
Variation magnétique : 13° East
Voir autres Aéroports à California

Données opérationnelles

Special qualification required
Heure actuelle UTC:
Heure actuelle locale:
Météo à : KNXP - Twentynine Palms Self ( 64 km )
METAR: KNXP 231456Z AUTO 31003KT 6SM HZ SCT110 24/06 A3002 RMK AO2 SLP128 T02390056 53003
TAF: TAF KNXP 2315/2415 VRB05KT 9999 FEW100 QNH2987INS BECMG 2323/2401 22010KT 9999 SCT100 QNH2986INS BECMG 2406/2408 VRB05KT 9999 SKC QNH2995INS T35/2323Z T21/2414Z
Voir NOTAMs / SUP AIP / TFR affectant cet aéroport [VIEW]
Fréquences de communication: [VIEW]

Pistes:

Identifiant RWYQFULongueur (ft)Largeur (ft)SurfaceLDA (ft)
08528049ASPH
26528049ASPH

Coordonnées de l'aéroport

Adresse: Cadiz United States

Vue satellite de CA90